Cajari, Brazil
Current Conditions -  °F | °C
As of 2:00 PM on Thursday 30 Oct 2014 (Local Time) from SBSL Reporting Station
Scattered Clouds Scattered Clouds  
Wind Chill: 91°   Ceiling: Unl
Heat Index: 91°   Visibility: 6mi
Dew Point: 61°   Wind: 25mph
Humidity: 36%   Direction: 60°ENE
Pressure: 29.8"   Gusts: NA
Location:  3.32°S, 45.01°W
Report Text: SBSL 301700Z 06022KT 9999 SCT020 33/16 Q1009
Loading
Personal Weather Stations






























Interactive Weather Map
Tropical Storm Tracking
New forecast layout! Learn more

10-Day Weather Forecast

Advertisements
Track Severe Weather on mobile